»·PEaware :: ASA688 KSEA-KLAS

ASA688 :: KSEA-KLAS

FLIGHT INFORMATION

Flight Status: Arrived
Operator:
Alaska Airlines
More flights by this operator :: More flights under this callsign
Pilot: Jules P. (45166)
Aircraft: BOEING 737-900
(B739)
More flights by this aircraft type
Origin: KSEA Seattle-Tacoma Intl
United States
Destination: KLAS Harry Reid Intl
United States
More flights between these airports :: More routes between these airports
Route: SUMMA2 LKV RYANN J92 OAL TQILA COKTL3
File this flight plan on PilotEdge
Remarks: RMK / SIMBRIEF
Altitude:
(Current/Filed)
41,000ft
Speed:
(Current/Filed)
443kts
Departed: 01-Oct-23 04:53 PM
Arrived: 01-Oct-23 06:50 PM
Distance/Time
Traveled:
753nm/1:57
Distance/Time
To Go:
Arrived

Flight Plot

Page will automatically refresh every two minutes.

Flight plan parsing failed; only flown route is shown


Map Options




Map Legend


Flown Route
Filed Route
Departure Airport
Arrival Airport
Navaid (VOR, NDB)
Fix

Horizontal Profiles

Position Reports

Time Latitude Longitude Heading Altitude Ground
Speed
01-Oct-23 16:28 47.447770 -122.301049 304 441ft 0kts
01-Oct-23 16:29 47.447770 -122.301049 304 441ft 0kts
01-Oct-23 16:30 47.447770 -122.301049 304 441ft 0kts
01-Oct-23 16:31 47.447770 -122.301049 304 441ft 0kts
01-Oct-23 16:32 47.447770 -122.301049 304 441ft 0kts
01-Oct-23 16:33 47.447770 -122.301049 304 441ft 0kts
01-Oct-23 16:34 47.447770 -122.301049 304 441ft 0kts
01-Oct-23 16:35 47.447770 -122.301049 304 441ft 0kts
01-Oct-23 16:35 47.447770 -122.301049 304 441ft 0kts
01-Oct-23 16:37 47.447770 -122.301049 304 441ft 0kts
01-Oct-23 16:38 47.447770 -122.301049 304 441ft 0kts
01-Oct-23 16:39 47.447770 -122.301049 304 441ft 0kts
01-Oct-23 16:40 47.447770 -122.301049 304 441ft 0kts
01-Oct-23 16:40 47.447652 -122.300779 297 441ft 2kts
01-Oct-23 16:41 47.447723 -122.299870 208 441ft 1kts
01-Oct-23 16:42 47.447804 -122.299805 208 441ft 0kts
01-Oct-23 16:44 47.447804 -122.299805 208 441ft 0kts
01-Oct-23 16:44 47.447804 -122.299805 208 441ft 0kts
01-Oct-23 16:45 47.447276 -122.300238 216 441ft 11kts
01-Oct-23 16:46 47.447579 -122.303988 304 441ft 3kts
01-Oct-23 16:47 47.447420 -122.306315 179 441ft 16kts
01-Oct-23 16:49 47.439388 -122.306376 180 441ft 23kts
01-Oct-23 16:49 47.434539 -122.305589 183 441ft 20kts
01-Oct-23 16:50 47.432193 -122.305577 161 441ft 16kts
01-Oct-23 16:51 47.431376 -122.307662 289 441ft 5kts
01-Oct-23 16:52 47.441634 -122.307965 0 441ft 138kts
01-Oct-23 16:53 47.493716 -122.308374 358 3891ft 179kts
01-Oct-23 16:54 47.547956 -122.309260 358 6626ft 244kts
01-Oct-23 16:55 47.608566 -122.274970 62 10597ft 265kts
01-Oct-23 16:56 47.576482 -122.182006 160 14023ft 305kts
01-Oct-23 16:57 47.491827 -122.152998 171 15284ft 319kts
01-Oct-23 16:58 47.396701 -122.135470 172 17414ft 383kts
01-Oct-23 16:59 47.283540 -122.114161 172 19689ft 422kts
01-Oct-23 17:00 47.164859 -122.091612 171 22273ft 440kts
01-Oct-23 17:01 47.041130 -122.067960 171 24385ft 457kts
01-Oct-23 17:02 46.912800 -122.043607 171 26174ft 472kts
01-Oct-23 17:03 46.780496 -122.018710 171 27684ft 487kts
01-Oct-23 17:04 46.644386 -121.993285 171 28974ft 501kts
01-Oct-23 17:05 46.507281 -121.947372 162 30140ft 509kts
01-Oct-23 17:06 46.369479 -121.893325 162 31292ft 516kts
01-Oct-23 17:07 46.230973 -121.840120 162 32635ft 514kts
01-Oct-23 17:08 46.092929 -121.787427 162 33821ft 512kts
01-Oct-23 17:09 45.955137 -121.735282 162 34856ft 512kts
01-Oct-23 17:10 45.818277 -121.683784 162 35819ft 510kts
01-Oct-23 17:11 45.680957 -121.632377 162 36680ft 509kts
01-Oct-23 17:12 45.544126 -121.581414 162 37461ft 508kts
01-Oct-23 17:13 45.407216 -121.530677 162 38122ft 508kts
01-Oct-23 17:14 45.270352 -121.480210 162 38702ft 510kts
01-Oct-23 17:15 45.132980 -121.429809 162 39277ft 510kts
01-Oct-23 17:16 44.996075 -121.379827 162 39900ft 508kts
01-Oct-23 17:17 44.859518 -121.330220 162 40488ft 505kts
01-Oct-23 17:18 44.723694 -121.281115 162 41033ft 503kts
01-Oct-23 17:19 44.587713 -121.232195 162 41148ft 501kts
01-Oct-23 17:20 44.452998 -121.183963 162 41142ft 500kts
01-Oct-23 17:21 44.318247 -121.135946 162 41132ft 500kts
01-Oct-23 17:22 44.183369 -121.088111 162 41132ft 501kts
01-Oct-23 17:23 44.048209 -121.040403 162 41142ft 500kts
01-Oct-23 17:24 43.913314 -120.993013 162 41151ft 502kts
01-Oct-23 17:25 43.777540 -120.945534 162 41138ft 502kts
01-Oct-23 17:26 43.641844 -120.898305 162 41134ft 503kts
01-Oct-23 17:27 43.506621 -120.851461 162 41126ft 503kts
01-Oct-23 17:28 43.370859 -120.804646 162 41130ft 502kts
01-Oct-23 17:29 43.235311 -120.758120 162 41142ft 502kts
01-Oct-23 17:30 43.099374 -120.711674 162 41133ft 504kts
01-Oct-23 17:31 42.963584 -120.665487 162 41125ft 504kts
01-Oct-23 17:32 42.827534 -120.619420 162 41119ft 503kts
01-Oct-23 17:33 42.691801 -120.573535 162 41114ft 503kts
01-Oct-23 17:34 42.556116 -120.528098 162 41113ft 502kts
01-Oct-23 17:35 42.421444 -120.479669 159 41111ft 500kts
01-Oct-23 17:36 42.287703 -120.426243 160 41110ft 499kts
01-Oct-23 17:37 42.154551 -120.373901 159 41110ft 499kts
01-Oct-23 17:38 42.021553 -120.321511 160 41109ft 498kts
01-Oct-23 17:39 41.888281 -120.269505 160 41107ft 497kts
01-Oct-23 17:40 41.755541 -120.217971 160 41105ft 498kts
01-Oct-23 17:41 41.622358 -120.166496 160 41103ft 498kts
01-Oct-23 17:42 41.489174 -120.115240 160 41102ft 498kts
01-Oct-23 17:43 41.356117 -120.064254 160 41100ft 499kts
01-Oct-23 17:44 41.222617 -120.013312 160 41100ft 498kts
01-Oct-23 17:45 41.089209 -119.962622 161 41099ft 495kts
01-Oct-23 17:46 40.957951 -119.912962 161 41099ft 490kts
01-Oct-23 17:47 40.826437 -119.863408 161 41099ft 490kts
01-Oct-23 17:48 40.695296 -119.814198 161 41099ft 489kts
01-Oct-23 17:49 40.564484 -119.765312 161 41099ft 490kts
01-Oct-23 17:50 40.433199 -119.716447 161 41097ft 490kts
01-Oct-23 17:51 40.302044 -119.667829 162 41098ft 490kts
01-Oct-23 17:52 40.170648 -119.619317 162 41099ft 490kts
01-Oct-23 17:53 40.039452 -119.571073 162 41099ft 490kts
01-Oct-23 17:54 39.908299 -119.523036 162 41100ft 489kts
01-Oct-23 17:55 39.777525 -119.475328 162 41101ft 488kts
01-Oct-23 17:56 39.647054 -119.427916 162 41097ft 487kts
01-Oct-23 17:57 39.516567 -119.380582 162 41100ft 486kts
01-Oct-23 17:58 39.386160 -119.333566 163 41099ft 485kts
01-Oct-23 17:59 39.257266 -119.283650 153 41098ft 482kts
01-Oct-23 18:00 39.153093 -119.178019 132 41095ft 475kts
01-Oct-23 18:01 39.058290 -119.059242 133 41093ft 475kts
01-Oct-23 18:02 38.963461 -118.941506 133 41094ft 474kts
01-Oct-23 18:03 38.868407 -118.824100 134 41089ft 474kts
01-Oct-23 18:04 38.773243 -118.706947 134 41097ft 474kts
01-Oct-23 18:05 38.678602 -118.589648 134 41098ft 473kts
01-Oct-23 18:06 38.583491 -118.473368 135 41098ft 473kts
01-Oct-23 18:07 38.488453 -118.357516 135 41098ft 472kts
01-Oct-23 18:08 38.393848 -118.242476 135 41098ft 471kts
01-Oct-23 18:09 38.298904 -118.127415 135 41092ft 470kts
01-Oct-23 18:10 38.204464 -118.012222 135 41073ft 470kts
01-Oct-23 18:11 38.109706 -117.897965 136 41064ft 469kts
01-Oct-23 18:12 38.014946 -117.784350 136 41061ft 469kts
01-Oct-23 18:13 37.916418 -117.675516 139 41067ft 470kts
01-Oct-23 18:14 37.816971 -117.568376 139 41065ft 469kts
01-Oct-23 18:15 37.718032 -117.461281 139 41064ft 468kts
01-Oct-23 18:16 37.619556 -117.354673 140 41062ft 467kts
01-Oct-23 18:17 37.520402 -117.248497 140 41062ft 466kts
01-Oct-23 18:18 37.417767 -117.149656 147 41057ft 464kts
01-Oct-23 18:19 37.311729 -117.057794 146 41036ft 463kts
01-Oct-23 18:20 37.205744 -116.966011 147 41014ft 462kts
01-Oct-23 18:21 37.105441 -116.879545 147 41000ft 462kts
01-Oct-23 18:22 36.999518 -116.788600 147 40963ft 462kts
01-Oct-23 18:23 36.892997 -116.697086 147 38350ft 466kts
01-Oct-23 18:24 36.786139 -116.605636 148 35068ft 465kts
01-Oct-23 18:25 36.679988 -116.515232 146 31652ft 457kts
01-Oct-23 18:26 36.591056 -116.406294 132 28920ft 439kts
01-Oct-23 18:27 36.512534 -116.295107 132 26312ft 420kts
01-Oct-23 18:28 36.436598 -116.188296 130 23779ft 405kts
01-Oct-23 18:29 36.363272 -116.085162 130 21328ft 390kts
01-Oct-23 18:30 36.292568 -115.986480 131 19051ft 373kts
01-Oct-23 18:31 36.230550 -115.896954 126 18465ft 325kts
01-Oct-23 18:32 36.175493 -115.808836 128 17238ft 321kts
01-Oct-23 18:33 36.128128 -115.717655 112 16094ft 315kts
01-Oct-23 18:34 36.097886 -115.617506 111 14890ft 309kts
01-Oct-23 18:35 36.067621 -115.519602 112 13725ft 302kts
01-Oct-23 18:36 36.038072 -115.424361 112 12591ft 291kts
01-Oct-23 18:37 36.014237 -115.326556 97 11460ft 299kts
01-Oct-23 18:38 36.009067 -115.225738 95 10337ft 286kts
01-Oct-23 18:39 36.003756 -115.133154 95 9181ft 248kts
01-Oct-23 18:40 35.999018 -115.049787 94 8153ft 238kts
01-Oct-23 18:41 35.999414 -114.966180 92 7952ft 245kts
01-Oct-23 18:42 36.003843 -114.883802 60 6742ft 246kts
01-Oct-23 18:43 36.063805 -114.876322 341 5975ft 239kts
01-Oct-23 18:44 36.091731 -114.931175 230 5231ft 224kts
01-Oct-23 18:45 36.074105 -114.993762 265 4302ft 163kts
01-Oct-23 18:46 36.073746 -115.046207 267 3442ft 146kts
01-Oct-23 18:47 36.073700 -115.094746 268 2695ft 140kts
01-Oct-23 18:48 36.073862 -115.141610 262 2189ft 113kts
01-Oct-23 18:49 36.074280 -115.149573 299 2189ft 19kts
01-Oct-23 18:50 36.074675 -115.150403 300 2189ft 7kts
01-Oct-23 18:51 36.077182 -115.152430 334 2189ft 0kts
01-Oct-23 18:52 36.077329 -115.152518 334 2189ft 0kts
01-Oct-23 18:53 36.078768 -115.152738 83 2189ft 9kts
01-Oct-23 18:54 36.078349 -115.146892 85 2189ft 11kts
01-Oct-23 18:55 36.078274 -115.140783 87 2189ft 4kts
01-Oct-23 18:56 36.079126 -115.140799 313 2189ft 8kts
01-Oct-23 18:57 36.079724 -115.140912 82 2189ft 1kts
01-Oct-23 18:58 36.079920 -115.140441 60 2189ft 0kts
01-Oct-23 18:59 36.079940 -115.140396 60 2189ft 0kts
01-Oct-23 19:00 36.079940 -115.140396 60 2189ft 0kts
01-Oct-23 19:01 36.079940 -115.140396 60 2189ft 0kts
01-Oct-23 19:02 36.079940 -115.140396 60 2189ft 0kts
01-Oct-23 19:03 36.079940 -115.140396 60 2189ft 0kts
01-Oct-23 19:04 36.079940 -115.140396 60 2189ft 0kts

Navigation Log

Ident Type
Flight plan parsing failed, navigation log unavailable